Latest Weather Observations for Grove

IDT60801

Issued at 2:05 am EDT Thursday 23 October 2014 (issued every 30 minutes, with the page automatically refreshed every 10 minutes)

About weather observations | Map of weather stations | Latest weather observations for TAS | Other Formats
Station Details ID: 094220 Name: GROVE (RESEARCH STATION) Lat: -42.99 Lon: 147.07 Height: 65.0 m
Data from the previous 72 hours. | See also: Recent months at Grove
Date/Time
EDT
Temp
°C
App
Temp
°C
Dew
Point
Rel
Hum
%
Delta-T
°C
Wind Press
QNH
hPa
Press
MSL
hPa
Rain
since 9 am
mm
Dir
 
Spd
km/h
Gust
km/h
Spd
kts
Gust
kts
23/02:00am 11.4 8.4 7.9 79 1.7 S 13 22 7 12 - - 0.0
23/01:30am 11.7 7.8 8.5 81 1.6 S 19 28 10 15 - - 0.0
23/01:00am 12.8 10.6 9.3 79 1.8 SW 11 17 6 9 - - 0.0
23/12:30am 13.6 12.2 9.5 76 2.1 W 7 11 4 6 - - 0.0
23/12:00am 14.0 12.2 9.5 74 2.3 SSW 9 15 5 8 - - 0.0
 
Date/Time
EDT
Temp
°C
App
Temp
°C
Dew
Point
Rel
Hum
%
Delta-T
°C
Wind Press
QNH
hPa
Press
MSL
hPa
Rain
since 9 am
mm
Dir
 
Spd
km/h
Gust
km/h
Spd
kts
Gust
kts
22/11:30pm 14.2 12.5 9.8 75 2.3 W 9 17 5 9 - - 0.0
22/11:00pm 14.7 12.6 9.9 73 2.5 SSW 11 24 6 13 - - 0.0
22/10:30pm 15.7 13.8 10.4 71 2.8 WSW 11 17 6 9 - - 0.0
22/10:00pm 16.0 14.1 10.5 70 2.9 WNW 11 20 6 11 - - 0.0
22/09:30pm 15.9 15.6 10.0 68 3.1 SSW 2 11 1 6 - - 0.0
22/09:00pm 15.0 13.2 9.4 69 2.9 WSW 9 13 5 7 - - 0.0
22/08:30pm 14.2 12.8 8.9 70 2.7 NE 6 7 3 4 - - 0.0
22/08:00pm 15.1 13.8 7.7 61 3.7 SW 4 9 2 5 - - 0.0
22/07:30pm 15.9 13.6 7.3 56 4.3 SSW 9 15 5 8 - - 0.0
22/07:00pm 17.3 15.6 7.4 52 5.0 WSW 6 7 3 4 - - 0.0
22/06:30pm 16.8 13.2 6.7 51 5.0 WSW 15 19 8 10 - - 0.0
22/06:00pm 16.7 13.9 6.8 52 4.9 WSW 11 19 6 10 - - 0.0
22/05:30pm 17.2 14.2 6.2 48 5.4 S 11 20 6 11 - - 0.0
22/05:00pm 20.4 15.8 6.3 40 7.1 SW 20 30 11 16 - - 0.0
22/04:30pm 23.4 21.8 8.6 38 7.9 WSW 7 9 4 5 - - 0.0
22/04:00pm 24.0 21.2 6.9 33 8.9 SW 11 19 6 10 - - 0.0
22/03:30pm 24.3 21.8 8.2 35 8.6 S 11 17 6 9 - - 0.0
22/03:00pm 25.0 21.9 7.4 32 9.3 SSW 13 15 7 8 - - 0.0
22/02:30pm 25.0 23.0 7.1 32 9.4 SSW 7 11 4 6 - - 0.0
22/02:00pm 23.9 21.9 6.2 32 9.1 SSW 6 9 3 5 - - 0.0
22/01:30pm 24.5 22.5 7.1 32 9.1 W 7 11 4 6 - - 0.0
22/01:00pm 23.2 22.1 7.0 35 8.4 ESE 2 11 1 6 - - 0.0
22/12:30pm 21.7 19.6 5.8 35 8.0 WNW 6 7 3 4 - - 0.0
22/12:00pm 20.5 18.6 4.7 35 7.7 SW 4 9 2 5 - - 0.0
22/11:30am 19.1 16.7 5.2 40 6.8 SSW 7 11 4 6 - - 0.0
22/11:00am 17.4 15.7 7.5 52 5.0 WSW 6 9 3 5 - - 0.0
22/10:30am 16.3 15.0 6.0 50 5.0 N 2 7 1 4 - - 0.0
22/10:00am 15.1 13.8 6.2 55 4.3 N 2 7 1 4 - - 0.0
22/09:30am 13.3 11.7 6.4 63 3.3 SE 4 7 2 4 - - 0.0
22/09:00am 12.1 11.4 7.1 71 2.4 CALM 0 0 0 0 - - 0.0
22/08:30am 10.0 9.3 7.0 81 1.4 CALM 0 0 0 0 - - 0.0
22/08:00am 8.7 7.8 5.9 82 1.3 CALM 0 4 0 2 - - 0.0
22/07:30am 7.7 6.8 5.9 88 0.8 CALM 0 6 0 3 - - 0.0
22/07:00am 4.8 3.2 4.3 97 0.2 NNE 2 6 1 3 - - 0.0
22/06:30am 4.2 1.7 3.7 97 0.2 NE 6 7 3 4 - - 0.0
22/06:00am 4.0 1.5 3.5 97 0.2 NE 6 9 3 5 - - 0.0
22/05:30am 4.3 1.6 3.6 95 0.3 NE 7 11 4 6 - - 0.0
22/05:00am 4.7 2.0 3.7 93 0.4 NNE 7 13 4 7 - - 0.0
22/04:30am 5.6 2.2 4.2 91 0.6 NNW 11 19 6 10 - - 0.0
22/04:00am 3.9 1.4 3.7 99 0.1 NNE 6 15 3 8 - - 0.0
22/03:30am 4.4 1.4 4.2 99 0.1 NNE 9 11 5 6 - - 0.0
22/03:00am 3.9 1.2 3.7 99 0.1 ENE 7 11 4 6 - - 0.0
22/02:30am 4.0 1.5 3.8 99 0.1 NNE 6 7 3 4 - - 0.0
22/02:00am 4.5 2.9 4.3 99 0.1 NNW 2 7 1 4 - - 0.0
22/01:30am 4.6 2.5 4.1 97 0.2 NE 4 9 2 5 - - 0.0
22/01:00am 4.8 2.5 4.6 99 0.1 N 6 9 3 5 - - 0.0
22/12:30am 5.3 3.0 4.8 97 0.2 ENE 6 7 3 4 - - 0.0
22/12:00am 6.1 3.9 5.4 95 0.3 NE 6 6 3 3 - - 0.0
 
Date/Time
EDT
Temp
°C
App
Temp
°C
Dew
Point
Rel
Hum
%
Delta-T
°C
Wind Press
QNH
hPa
Press
MSL
hPa
Rain
since 9 am
mm
Dir
 
Spd
km/h
Gust
km/h
Spd
kts
Gust
kts
21/11:30pm 6.2 4.0 5.3 94 0.4 NE 6 7 3 4 - - 0.0
21/11:00pm 7.3 6.0 6.2 93 0.5 NE 2 7 1 4 - - 0.0
21/10:30pm 7.5 5.3 6.2 91 0.6 NE 7 9 4 5 - - 0.0
21/10:00pm 9.3 7.3 7.2 87 1.0 ENE 7 9 4 5 - - 0.0
21/09:30pm 9.7 7.8 7.6 87 1.0 N 7 9 4 5 - - 0.0
21/09:00pm 12.5 9.5 7.6 72 2.4 NNE 13 17 7 9 - - 0.0
21/08:30pm 13.3 11.0 7.6 68 2.8 NNE 9 13 5 7 - - 0.0
21/08:00pm 14.2 11.1 7.3 63 3.4 NNE 13 24 7 13 - - 0.0
21/07:30pm 14.7 11.6 7.2 61 3.7 NE 13 24 7 13 - - 0.0
21/07:00pm 15.4 11.9 7.3 58 4.0 ENE 15 22 8 12 - - 0.0
21/06:30pm 16.3 11.4 7.0 54 4.6 E 22 37 12 20 - - 0.0
21/06:00pm 17.4 12.7 6.2 47 5.5 E 20 28 11 15 - - 0.0
21/05:30pm 17.9 13.4 6.1 46 5.8 E 19 28 10 15 - - 0.0
21/05:00pm 18.4 14.1 6.8 46 5.8 E 19 28 10 15 - - 0.0
21/04:30pm 18.5 13.9 6.5 45 6.0 E 20 33 11 18 - - 0.0
21/04:00pm 18.5 13.8 5.9 43 6.2 E 20 28 11 15 - - 0.0
21/03:30pm 18.9 14.2 6.0 43 6.4 E 20 30 11 16 - - 0.0
21/03:00pm 19.5 15.4 6.0 41 6.7 E 17 28 9 15 - - 0.0
21/02:30pm 19.1 15.6 5.4 40 6.7 E 13 22 7 12 - - 0.0
21/02:00pm 18.6 15.0 5.2 41 6.5 ESE 13 17 7 9 - - 0.0
21/01:30pm 18.2 15.3 4.6 40 6.5 NNE 9 17 5 9 - - 0.0
21/01:00pm 17.2 14.2 4.0 41 6.2 SSE 9 15 5 8 - - 0.0
21/12:30pm 17.1 14.3 5.3 45 5.7 NW 9 13 5 7 - - 0.0
21/12:00pm 16.4 14.3 6.7 52 4.8 WSW 7 11 4 6 - - 0.0
21/11:30am 15.4 13.0 5.3 51 4.8 W 7 13 4 7 - - 0.0
21/11:00am 13.8 12.0 5.3 56 4.0 NNW 4 9 2 5 - - 0.0
21/10:30am 12.1 10.6 5.2 62 3.2 W 2 11 1 6 - - 0.0
21/10:00am 10.7 9.4 4.2 64 2.9 CALM 0 0 0 0 - - 0.0
21/09:30am 9.4 8.4 5.7 78 1.7 CALM 0 7 0 4 - - 0.0
21/09:00am 7.5 6.3 4.8 83 1.2 CALM 0 0 0 0 - - 0.0
21/08:30am 5.8 4.2 4.4 91 0.6 NNE 2 7 1 4 - - 0.0
21/08:00am 4.3 2.9 3.6 95 0.3 CALM 0 0 0 0 - - 0.0
21/07:30am 2.0 0.3 1.7 98 0.1 CALM 0 0 0 0 - - 0.0
21/07:00am 1.0 -0.8 1.0 100 0.0 CALM 0 0 0 0 - - 0.0
21/06:30am 0.2 - - - - N 6 7 3 4 - - 0.0
21/06:00am 0.4 - - - - NE 6 6 3 3 - - 0.0
21/05:30am 0.3 - - - - NNE 4 9 2 5 - - 0.0
21/05:00am 0.3 - - - - CALM 0 0 0 0 - - 0.0
21/04:30am 0.9 -2.4 0.4 96 0.2 E 7 7 4 4 - - 0.0
21/04:00am 1.1 -1.1 1.1 100 0.0 NNE 2 7 1 4 - - 0.0
21/03:30am 1.1 -1.5 1.1 100 0.0 N 4 6 2 3 - - 0.0
21/03:00am 1.3 -1.6 1.3 100 0.0 N 6 7 3 4 - - 0.0
21/02:30am 1.7 -1.4 1.4 98 0.1 NNE 7 9 4 5 - - 0.0
21/02:00am 1.1 -2.1 0.6 96 0.2 ENE 7 9 4 5 - - 0.0
21/01:30am 2.4 0.7 1.9 96 0.2 CALM 0 0 0 0 - - 0.0
21/01:00am 2.9 1.3 2.4 96 0.2 CALM 0 0 0 0 - - 0.0
21/12:30am 3.5 0.8 2.5 93 0.4 ENE 6 9 3 5 - - 0.0
21/12:00am 4.1 1.5 3.1 93 0.4 NE 6 7 3 4 - - 0.0
 
Date/Time
EDT
Temp
°C
App
Temp
°C
Dew
Point
Rel
Hum
%
Delta-T
°C
Wind Press
QNH
hPa
Press
MSL
hPa
Rain
since 9 am
mm
Dir
 
Spd
km/h
Gust
km/h
Spd
kts
Gust
kts
20/11:30pm 4.5 2.3 3.5 93 0.4 NE 4 6 2 3 - - 0.0
20/11:00pm 5.3 3.6 3.9 91 0.6 NE 2 7 1 4 - - 0.0
20/10:30pm 6.0 4.7 3.9 86 0.9 CALM 0 4 0 2 - - 0.0
20/10:00pm 6.4 3.9 3.6 82 1.2 E 6 9 3 5 - - 0.0
20/09:30pm 8.5 6.2 4.7 77 1.7 WNW 6 7 3 4 - - 0.0
20/09:00pm 9.4 8.1 3.9 68 2.4 CALM 0 2 0 1 - - 0.0
20/08:30pm 9.5 7.4 4.1 69 2.4 E 4 7 2 4 - - 0.0
20/08:00pm 9.2 6.6 4.2 71 2.2 E 7 11 4 6 - - 0.0
20/07:30pm 9.5 5.6 3.5 66 2.6 E 13 20 7 11 - - 0.0
20/07:00pm 10.6 6.3 3.3 60 3.2 E 15 22 8 12 - - 0.0
20/06:30pm 10.7 6.0 2.9 58 3.4 E 17 26 9 14 - - 0.0
20/06:00pm 11.1 5.8 2.8 56 3.6 E 20 30 11 16 - - 0.0
20/05:30pm 11.8 6.2 3.2 55 3.8 E 22 32 12 17 - - 0.0
20/05:00pm 12.6 7.4 3.4 53 4.1 E 20 30 11 16 - - 0.0
20/04:30pm 13.6 8.4 3.4 50 4.6 E 20 28 11 15 - - 0.0
20/04:00pm 13.6 9.0 3.7 51 4.5 E 17 26 9 14 - - 0.0
20/03:30pm 14.9 12.1 2.0 41 5.7 SE 6 9 3 5 - - 0.0
20/03:00pm 13.3 9.0 0.8 42 5.3 S 13 17 7 9 - - 0.0
20/02:30pm 14.2 11.2 1.9 43 5.4 WSW 7 11 4 6 - - 0.0
20/02:00pm 13.0 9.6 1.9 47 4.8 S 9 17 5 9 - - 0.0
20/01:30pm 12.7 9.6 1.2 45 4.9 E 7 11 4 6 - - 0.0
20/01:00pm 13.1 10.2 1.2 44 5.1 WSW 6 11 3 6 - - 0.0
20/12:30pm 11.8 7.8 0.8 47 4.6 SE 11 17 6 9 - - 0.0
20/12:00pm 11.8 8.2 0.8 47 4.6 WSW 9 9 5 5 - - 0.0
20/11:30am 10.4 6.3 -0.3 47 4.3 S 11 17 6 9 - - 0.0
20/11:00am 10.8 7.0 -0.4 46 4.5 SSW 9 13 5 7 - - 0.0
20/10:30am 10.8 7.4 -0.4 46 4.5 WNW 7 15 4 8 - - 0.0
20/10:00am 9.6 6.9 2.8 62 2.9 SSW 6 11 3 6 - - 0.0
20/09:30am 7.9 5.6 2.9 70 2.1 SW 4 7 2 4 - - 0.0
20/09:00am 6.1 4.2 2.7 79 1.4 WSW 2 6 1 3 - - 1.2
20/08:30am 5.3 3.8 2.9 84 1.0 CALM 0 0 0 0 - - 1.2
20/08:00am 3.5 1.2 2.5 93 0.4 NNE 4 7 2 4 - - 1.2
20/07:30am 2.2 -0.3 1.4 94 0.3 N 4 9 2 5 - - 1.2
20/07:00am 2.1 -1.0 1.3 94 0.3 ENE 7 9 4 5 - - 1.2
20/06:30am 1.2 -2.0 0.9 98 0.1 ENE 7 9 4 5 - - 1.2
20/06:00am 1.6 -0.6 1.1 96 0.2 S 2 9 1 5 - - 1.2
20/05:30am 1.1 -2.1 0.8 98 0.1 N 7 9 4 5 - - 1.2
20/05:00am 0.5 -2.8 0.2 98 0.1 N 7 7 4 4 - - 1.2
20/04:30am 0.5 -2.6 0.2 98 0.1 NNE 6 7 3 4 - - 1.2
20/04:00am 0.5 -3.2 0.2 98 0.1 NE 9 11 5 6 - - 1.2
20/03:30am 1.0 -2.0 0.7 98 0.1 NE 6 9 3 5 - - 1.2
20/03:00am 1.4 -2.2 0.9 96 0.2 NNE 9 13 5 7 - - 1.2
20/02:30am 1.1 -2.1 0.8 98 0.1 ESE 7 9 4 5 - - 1.2

Other Formats:

Comma delimited format used in spreadsheet applications
http://www.bom.gov.au/fwo/IDT60801/IDT60801.95977.axf

JavaScript Object Notation format (JSON) in row-major order
http://www.bom.gov.au/fwo/IDT60801/IDT60801.95977.json